Terminal Aerodrome Forecast
Issued by NWS

Home | Current Version | Previous Version | Text Only | Print | Product List | Glossary On
Versions: 1 2 3 4 5 6 7 8 9 10 11 12 13 14 15 16 17 18 19
000
FTUS43 KLSX 271742
TAFSUS
TAF
KSUS 271742Z 2718/2818 17009KT P6SM SKC
     FM280200 14009KT P6SM SCT030 BKN120
     FM280500 16010KT P6SM VCTS BKN025CB
     FM281000 17010KT 6SM BR BKN015
     FM281600 19015G24KT P6SM SCT030 BKN120=

USA.gov is the U.S. government's official web portal to all federal, state and local government web resources and services.